Time;durP1;ratioP1;P1;durP2;ratioP2;P2;SDS_P1;SDS_P2;PMS_P1;PMS_P2;Temp;Humidity;BMP_temperature;BMP_pressure;BME280_temperature;BME280_humidity;BME280_pressure;Samples;Min_cycle;Max_cycle;Signal;HPM_P1;HPM_P2
2022/03/02 00:00:23;;;;;;;;;;;;;;;-0.33;99.78;100219.05;1668621;86;20094;-63
2022/03/02 00:02:49;;;;;;;;;;;;;;;-0.34;99.77;100219.58;1668590;85;20572;-63
2022/03/02 00:05:16;;;;;;;;;;;;;;;-0.34;99.73;100210.66;1670115;86;20125;-63
2022/03/02 00:07:42;;;;;;;;;;;;;;;-0.33;99.76;100215.00;1671281;86;21906;-63
2022/03/02 00:10:10;;;;;;;;;;;;;;;-0.33;99.67;100208.26;1671050;86;20133;-63
2022/03/02 00:12:37;;;;;;;;;;;;;;;-0.33;99.70;100212.30;1671476;86;20093;-63
2022/03/02 00:15:04;;;;;;;;;;;;;;;-0.35;99.63;100207.14;1671080;86;20110;-63
2022/03/02 00:17:32;;;;;;;;;;;;;;;-0.34;99.70;100203.91;1671147;86;20129;-63
2022/03/02 00:19:58;;;;;;;;;;;;;;;-0.33;99.59;100196.11;1671187;86;21159;-63
2022/03/02 00:22:25;;;;;;;;;;;;;;;-0.36;99.50;100190.66;1671236;86;20428;-62
2022/03/02 00:24:51;;;;;;;;;;;;;;;-0.34;99.78;100186.37;1655302;86;20143;-61
2022/03/02 00:27:23;;;;;;;;;;;;;;;-0.34;99.65;100182.33;1640922;87;20104;-61
2022/03/02 00:29:50;;;;;;;;;;;;;;;-0.35;99.57;100182.03;1641010;86;20124;-62
2022/03/02 00:32:16;;;;;;;;;;;;;;;-0.37;99.50;100176.86;1640768;87;23295;-62
2022/03/02 00:34:42;;;;;;;;;;;;;;;-0.39;99.36;100174.09;1640761;87;20144;-62
2022/03/02 00:37:12;;;;;;;;;;;;;;;-0.43;99.55;100167.52;1640957;87;20435;-62
2022/03/02 00:39:39;;;;;;;;;;;;;;;-0.42;99.74;100170.51;1640785;86;21863;-62
2022/03/02 00:42:07;;;;;;;;;;;;;;;-0.40;99.89;100164.36;1641008;87;20435;-62
2022/03/02 00:44:33;;;;;;;;;;;;;;;-0.38;99.86;100158.21;1640860;87;21064;-62
2022/03/02 00:47:00;;;;;;;;;;;;;;;-0.38;99.95;100153.64;1640899;87;20116;-62
2022/03/02 00:49:27;;;;;;;;;;;;;;;-0.37;99.91;100148.54;1640906;87;20096;-62
2022/03/02 00:51:59;;;;;;;;;;;;;;;-0.37;99.74;100151.77;1640782;86;20132;-62
2022/03/02 00:54:31;;;;;;;;;;;;;;;-0.39;99.65;100151.17;1641075;87;20115;-62
2022/03/02 00:56:57;;;;;;;;;;;;;;;-0.41;99.79;100141.13;1640953;87;21223;-63
2022/03/02 00:59:24;;;;;;;;;;;;;;;-0.40;100.00;100140.08;1640859;87;20140;-62
2022/03/02 01:01:50;;;;;;;;;;;;;;;-0.41;99.95;100143.30;1640933;87;20125;-62
2022/03/02 01:04:16;;;;;;;;;;;;;;;-0.41;99.97;100133.04;1640601;87;21908;-62
2022/03/02 01:06:43;;;;;;;;;;;;;;;-0.41;100.00;100138.44;1640927;87;20126;-62
2022/03/02 01:09:10;;;;;;;;;;;;;;;-0.42;100.00;100124.13;1640820;87;21167;-63
2022/03/02 01:11:38;;;;;;;;;;;;;;;-0.40;100.00;100125.24;1640810;87;20133;-62
2022/03/02 01:14:04;;;;;;;;;;;;;;;-0.39;100.00;100125.02;1640859;87;20080;-62
2022/03/02 01:16:32;;;;;;;;;;;;;;;-0.37;100.00;100120.21;1640801;87;20103;-62
2022/03/02 01:18:59;;;;;;;;;;;;;;;-0.35;100.00;100119.98;1640908;87;20128;-62
2022/03/02 01:21:25;;;;;;;;;;;;;;;-0.38;100.00;100113.70;1640889;87;21309;-62
2022/03/02 01:23:53;;;;;;;;;;;;;;;-0.40;100.00;100115.28;1643560;86;20116;-62
2022/03/02 01:26:21;;;;;;;;;;;;;;;-0.40;100.00;100114.45;1667657;86;20625;-62
2022/03/02 01:28:48;;;;;;;;;;;;;;;-0.44;100.00;100110.05;1667903;86;20140;-63
2022/03/02 01:31:14;;;;;;;;;;;;;;;-0.45;100.00;100101.66;1668020;86;20084;-62
2022/03/02 01:33:40;;;;;;;;;;;;;;;-0.43;100.00;100099.55;1667902;86;21071;-62
2022/03/02 01:36:06;;;;;;;;;;;;;;;-0.43;100.00;100097.38;1667885;86;20120;-61
2022/03/02 01:38:33;;;;;;;;;;;;;;;-0.43;100.00;100099.55;1668082;86;20087;-61
2022/03/02 01:40:59;;;;;;;;;;;;;;;-0.43;100.00;100097.38;1667834;86;20124;-62
2022/03/02 01:43:27;;;;;;;;;;;;;;;-0.42;100.00;100098.50;1667947;86;20127;-61
2022/03/02 01:45:54;;;;;;;;;;;;;;;-0.41;100.00;100091.23;1668173;86;21163;-61
2022/03/02 01:48:20;;;;;;;;;;;;;;;-0.42;100.00;100087.71;1667792;86;20155;-62
2022/03/02 01:50:47;;;;;;;;;;;;;;;-0.41;100.00;100088.53;1668076;86;20092;-61
2022/03/02 01:53:14;;;;;;;;;;;;;;;-0.41;100.00;100090.70;1667971;86;20104;-62
2022/03/02 01:55:43;;;;;;;;;;;;;;;-0.39;100.00;100085.08;1667957;86;20427;-61
2022/03/02 01:58:09;;;;;;;;;;;;;;;-0.40;100.00;100082.91;1667852;86;20704;-61
2022/03/02 02:00:38;;;;;;;;;;;;;;;-0.44;100.00;100083.07;1667816;86;20103;-61
2022/03/02 02:03:04;;;;;;;;;;;;;;;-0.49;100.00;100082.94;1667908;86;20158;-62
2022/03/02 02:05:31;;;;;;;;;;;;;;;-0.47;100.00;100076.79;1667960;84;20087;-61
2022/03/02 02:07:59;;;;;;;;;;;;;;;-0.47;100.00;100075.97;1668032;86;20434;-61
2022/03/02 02:10:25;;;;;;;;;;;;;;;-0.50;100.00;100069.16;1667870;86;23213;-61
2022/03/02 02:12:52;;;;;;;;;;;;;;;-0.52;100.00;100072.61;1668075;86;20099;-61
2022/03/02 02:15:20;;;;;;;;;;;;;;;-0.54;100.00;100079.29;1667833;86;20128;-61
2022/03/02 02:17:46;;;;;;;;;;;;;;;-0.56;100.00;100079.52;1668081;86;20664;-61
2022/03/02 02:20:13;;;;;;;;;;;;;;;-0.55;100.00;100069.55;1667955;86;20124;-62
2022/03/02 02:22:44;;;;;;;;;;;;;;;-0.56;100.00;100071.95;1667903;86;21164;-62
2022/03/02 02:25:11;;;;;;;;;;;;;;;-0.53;100.00;100062.05;1669847;84;20101;-61
2022/03/02 02:27:38;;;;;;;;;;;;;;;-0.53;100.00;100060.70;1671168;86;20089;-61
2022/03/02 02:30:06;;;;;;;;;;;;;;;-0.55;100.00;100054.72;1671108;86;20117;-62
2022/03/02 02:32:37;;;;;;;;;;;;;;;-0.55;100.00;100054.72;1671264;86;20101;-61
2022/03/02 02:35:06;;;;;;;;;;;;;;;-0.54;100.00;100054.48;1671310;86;21850;-62
2022/03/02 02:37:36;;;;;;;;;;;;;;;-0.53;100.00;100048.05;1671408;86;20419;-62
2022/03/02 02:40:06;;;;;;;;;;;;;;;-0.53;100.00;100049.92;1671192;86;20089;-63
2022/03/02 02:42:33;;;;;;;;;;;;;;;-0.56;100.00;100049.85;1671413;86;20101;-62
2022/03/02 02:45:01;;;;;;;;;;;;;;;-0.55;100.00;100046.63;1671149;86;20089;-62
2022/03/02 02:47:28;;;;;;;;;;;;;;;-0.56;100.00;100047.16;1671255;86;21166;-61
2022/03/02 02:49:54;;;;;;;;;;;;;;;-0.55;100.00;100049.33;1671107;86;20131;-61
2022/03/02 02:52:21;;;;;;;;;;;;;;;-0.53;100.00;100044.52;1671147;86;20160;-61
2022/03/02 02:54:49;;;;;;;;;;;;;;;-0.54;100.00;100046.40;1671196;86;20118;-61
2022/03/02 02:57:16;;;;;;;;;;;;;;;-0.58;100.00;100037.16;1671363;86;20452;-62
2022/03/02 02:59:42;;;;;;;;;;;;;;;-0.59;100.00;100037.39;1670079;86;23281;-62
2022/03/02 03:02:09;;;;;;;;;;;;;;;-0.58;100.00;100039.03;1671053;86;20121;-62
2022/03/02 03:04:35;;;;;;;;;;;;;;;-0.59;100.00;100036.04;1671238;86;20132;-62
2022/03/02 03:07:02;;;;;;;;;;;;;;;-0.60;100.00;100033.87;1668521;86;20142;-62
2022/03/02 03:09:28;;;;;;;;;;;;;;;-0.59;100.00;100031.99;1668657;86;20126;-62
2022/03/02 03:11:55;;;;;;;;;;;;;;;-0.56;100.00;100034.20;1668640;86;21076;-62
2022/03/02 03:14:22;;;;;;;;;;;;;;;-0.57;100.00;100037.95;1668510;85;20116;-62
2022/03/02 03:16:48;;;;;;;;;;;;;;;-0.56;100.00;100037.72;1668485;85;20089;-62
2022/03/02 03:19:15;;;;;;;;;;;;;;;-0.56;100.00;100035.55;1668566;85;20161;-62
2022/03/02 03:21:41;;;;;;;;;;;;;;;-0.53;100.00;100029.69;1668792;85;20089;-62
2022/03/02 03:24:08;;;;;;;;;;;;;;;-0.50;100.00;100032.75;1662726;85;21066;-62
2022/03/02 03:26:34;;;;;;;;;;;;;;;-0.48;100.00;100028.47;1643408;87;20132;-62
2022/03/02 03:29:00;;;;;;;;;;;;;;;-0.49;100.00;100027.65;1643168;87;20119;-62
2022/03/02 03:31:26;;;;;;;;;;;;;;;-0.50;100.00;100026.00;1643322;87;20184;-62
2022/03/02 03:33:53;;;;;;;;;;;;;;;-0.48;100.00;100020.37;1667524;86;20090;-63
2022/03/02 03:36:20;;;;;;;;;;;;;;;-0.49;100.00;100018.73;1666677;86;21107;-62
2022/03/02 03:38:46;;;;;;;;;;;;;;;-0.52;100.00;100016.50;1666191;86;20105;-62
2022/03/02 03:41:13;;;;;;;;;;;;;;;-0.54;100.00;100012.69;1665282;85;20426;-62
2022/03/02 03:43:39;;;;;;;;;;;;;;;-0.50;100.00;100007.13;1667338;85;20157;-63
2022/03/02 03:46:06;;;;;;;;;;;;;;;-0.46;100.00;99994.82;1669403;86;20158;-62
2022/03/02 03:48:33;;;;;;;;;;;;;;;-0.44;100.00;99990.55;1668496;85;21917;-62
2022/03/02 03:50:59;;;;;;;;;;;;;;;-0.42;100.00;99993.83;1668397;86;20145;-62
2022/03/02 03:53:26;;;;;;;;;;;;;;;-0.42;100.00;99984.39;1668418;85;20177;-62
2022/03/02 03:55:52;;;;;;;;;;;;;;;-0.44;100.00;99977.87;1668608;85;20433;-61
2022/03/02 03:58:19;;;;;;;;;;;;;;;-0.45;100.00;99976.23;1668543;86;20077;-61
2022/03/02 04:00:46;;;;;;;;;;;;;;;-0.44;100.00;99971.66;1668589;86;21840;-61
2022/03/02 04:03:13;;;;;;;;;;;;;;;-0.44;100.00;99966.27;1668308;86;20086;-62
2022/03/02 04:05:39;;;;;;;;;;;;;;;-0.45;100.00;99959.23;1667598;85;20122;-61
2022/03/02 04:08:06;;;;;;;;;;;;;;;-0.45;100.00;99960.58;1669145;86;20558;-62
2022/03/02 04:10:33;;;;;;;;;;;;;;;-0.45;100.00;99960.05;1669431;86;21322;-61
2022/03/02 04:13:01;;;;;;;;;;;;;;;-0.46;100.00;99958.94;1663631;86;20267;-61
2022/03/02 04:15:27;;;;;;;;;;;;;;;-0.46;100.00;99961.63;1656212;86;20431;-61
2022/03/02 04:17:54;;;;;;;;;;;;;;;-0.47;100.00;99953.25;1662330;86;20125;-61
2022/03/02 04:20:20;;;;;;;;;;;;;;;-0.49;100.00;99948.09;1657913;86;20142;-61
2022/03/02 04:22:46;;;;;;;;;;;;;;;-0.47;100.00;99950.55;1668362;86;20089;-61
2022/03/02 04:25:13;;;;;;;;;;;;;;;-0.48;100.00;99942.16;1655301;86;21867;-61
2022/03/02 04:27:40;;;;;;;;;;;;;;;-0.48;100.00;99944.33;1640772;87;20132;-61
2022/03/02 04:30:08;;;;;;;;;;;;;;;-0.45;100.00;99951.95;1662680;86;20157;-62
2022/03/02 04:32:37;;;;;;;;;;;;;;;-0.44;100.00;99952.78;1665175;86;20535;-62
2022/03/02 04:35:05;;;;;;;;;;;;;;;-0.44;100.00;99948.73;1670047;86;20180;-61
2022/03/02 04:37:31;;;;;;;;;;;;;;;-0.44;100.00;99941.46;1663792;86;21079;-61
2022/03/02 04:39:58;;;;;;;;;;;;;;;-0.45;100.00;99950.61;1666380;86;20142;-61
2022/03/02 04:42:25;;;;;;;;;;;;;;;-0.47;100.00;99950.02;1665291;86;20445;-62
2022/03/02 04:44:53;;;;;;;;;;;;;;;-0.52;100.00;99947.20;1669131;86;20129;-62
2022/03/02 04:47:19;;;;;;;;;;;;;;;-0.50;100.00;99949.66;1669436;86;20094;-62
2022/03/02 04:49:45;;;;;;;;;;;;;;;-0.48;100.00;99961.86;1669967;86;21165;-62
2022/03/02 04:52:13;;;;;;;;;;;;;;;-0.48;100.00;99957.00;1669474;86;20089;-61
2022/03/02 04:57:24;;;;;;;;;;;;;;;-0.52;100.00;99952.59;1669685;86;20090;-62
2022/03/02 04:59:50;;;;;;;;;;;;;;;-0.53;100.00;99954.17;1669774;86;20126;-62
2022/03/02 05:02:17;;;;;;;;;;;;;;;-0.57;100.00;99949.78;1668662;85;20546;-62
2022/03/02 05:04:44;;;;;;;;;;;;;;;-0.57;100.00;99954.35;1669824;86;20101;-62
2022/03/02 05:07:11;;;;;;;;;;;;;;;-0.58;100.00;99947.34;1667434;86;20101;-61
2022/03/02 05:09:37;;;;;;;;;;;;;;;-0.58;100.00;99952.21;1667077;86;20089;-61
2022/03/02 05:12:04;;;;;;;;;;;;;;;-0.58;100.00;99946.81;1668207;85;20422;-62
2022/03/02 05:14:31;;;;;;;;;;;;;;;-0.57;100.00;99950.30;1669999;86;21085;-62
2022/03/02 05:16:57;;;;;;;;;;;;;;;-0.56;100.00;99945.20;1665643;85;20437;-62
2022/03/02 05:19:23;;;;;;;;;;;;;;;-0.56;100.00;99951.42;1667013;86;20146;-62
2022/03/02 05:21:50;;;;;;;;;;;;;;;-0.56;100.00;99941.98;1667448;86;21918;-62
2022/03/02 05:24:16;;;;;;;;;;;;;;;-0.54;100.00;99944.45;1661529;86;20107;-62
2022/03/02 05:26:43;;;;;;;;;;;;;;;-0.52;100.00;99947.20;1669025;86;21063;-61
2022/03/02 05:29:09;;;;;;;;;;;;;;;-0.51;100.00;99945.33;1666026;86;20436;-61
2022/03/02 05:31:37;;;;;;;;;;;;;;;-0.48;100.00;99939.47;1665287;86;20433;-61
2022/03/02 05:34:04;;;;;;;;;;;;;;;-0.45;100.00;99948.44;1665036;86;20118;-62
2022/03/02 05:36:32;;;;;;;;;;;;;;;-0.43;100.00;99939.59;1665826;86;20101;-62
2022/03/02 05:38:58;;;;;;;;;;;;;;;-0.42;100.00;99933.14;1666891;86;23349;-61
2022/03/02 05:41:24;;;;;;;;;;;;;;;-0.42;100.00;99931.78;1666919;86;20078;-61
2022/03/02 05:43:53;;;;;;;;;;;;;;;-0.40;100.00;99931.03;1666813;86;20130;-62
2022/03/02 05:46:19;;;;;;;;;;;;;;;-0.37;100.00;99930.55;1666985;86;20134;-63
2022/03/02 05:48:45;;;;;;;;;;;;;;;-0.35;100.00;99929.27;1669975;86;20205;-63
2022/03/02 05:51:12;;;;;;;;;;;;;;;-0.36;100.00;99928.16;1665395;86;21935;-62
2022/03/02 05:53:38;;;;;;;;;;;;;;;-0.40;100.00;99926.98;1667678;86;20105;-62
2022/03/02 05:56:06;;;;;;;;;;;;;;;-0.41;100.00;99929.38;1666981;86;20097;-65
2022/03/02 05:58:33;;;;;;;;;;;;;;;-0.42;100.00;99924.52;1667026;85;20101;-64
2022/03/02 06:01:04;;;;;;;;;;;;;;;-0.43;100.00;99924.22;1667226;86;20077;-64
2022/03/02 06:03:28;;;;;;;;;;;;;;;-0.45;100.00;99922.81;1666049;86;21180;-64
2022/03/02 06:05:55;;;;;;;;;;;;;;;-0.48;100.00;99919.23;1667338;85;20188;-64
2022/03/02 06:08:22;;;;;;;;;;;;;;;-0.50;100.00;99926.74;1669704;86;20475;-64
2022/03/02 06:10:49;;;;;;;;;;;;;;;-0.49;100.00;99925.69;1669431;86;20094;-64
2022/03/02 06:13:17;;;;;;;;;;;;;;;-0.50;100.00;99927.56;1669534;86;20097;-63
2022/03/02 06:15:45;;;;;;;;;;;;;;;-0.49;100.00;99929.20;1669590;86;20469;-63
2022/03/02 06:18:14;;;;;;;;;;;;;;;-0.46;100.00;99924.69;1669553;86;20122;-63
2022/03/02 06:20:42;;;;;;;;;;;;;;;-0.41;100.00;99922.64;1669659;86;20118;-63
2022/03/02 06:23:10;;;;;;;;;;;;;;;-0.39;100.00;99919.18;1669116;86;20102;-63
2022/03/02 06:25:37;;;;;;;;;;;;;;;-0.34;100.00;99914.72;1670592;84;20089;-63
2022/03/02 06:28:04;;;;;;;;;;;;;;;-0.27;100.00;99906.51;1670844;86;21151;-64
2022/03/02 06:30:31;;;;;;;;;;;;;;;-0.25;100.00;99913.84;1670706;86;20117;-62
2022/03/02 06:32:57;;;;;;;;;;;;;;;-0.25;100.00;99907.09;1671249;86;20393;-63
2022/03/02 06:35:23;;;;;;;;;;;;;;;-0.25;100.00;99913.84;1671239;86;20535;-63
2022/03/02 06:37:50;;;;;;;;;;;;;;;-0.25;100.00;99907.09;1671037;85;20081;-63
2022/03/02 06:40:16;;;;;;;;;;;;;;;-0.25;100.00;99908.97;1671153;85;21802;-63
2022/03/02 06:43:06;;;;;;;;;;;;;;;-0.25;100.00;99910.32;1671019;86;20141;-63
2022/03/02 06:45:56;;;;;;;;;;;;;;;-0.25;100.00;99904.92;1671063;86;20145;-63
2022/03/02 06:48:43;;;;;;;;;;;;;;;-0.27;100.00;99897.59;1671033;86;20124;-63
2022/03/02 06:51:11;;;;;;;;;;;;;;;-0.27;100.00;99897.06;1671224;86;20125;-63
2022/03/02 06:53:37;;;;;;;;;;;;;;;-0.28;100.00;99897.30;1671202;86;23259;-63
2022/03/02 06:56:06;;;;;;;;;;;;;;;-0.30;100.00;99893.48;1670909;86;20473;-64
2022/03/02 06:58:42;;;;;;;;;;;;;;;-0.29;100.00;99890.27;1670920;84;20150;-63
2022/03/02 07:01:11;;;;;;;;;;;;;;;-0.29;100.00;99891.08;1671229;86;20487;-63
2022/03/02 07:03:47;;;;;;;;;;;;;;;-0.27;100.00;99890.32;1671501;86;20139;-62
2022/03/02 07:06:15;;;;;;;;;;;;;;;-0.24;100.00;99891.72;1670415;86;21166;-63
2022/03/02 07:08:49;;;;;;;;;;;;;;;-0.23;100.00;99890.67;1668400;86;20097;-63
2022/03/02 07:11:15;;;;;;;;;;;;;;;-0.19;100.00;99881.86;1668172;86;20449;-63
2022/03/02 07:13:41;;;;;;;;;;;;;;;-0.16;100.00;99881.92;1668564;85;21955;-62
2022/03/02 07:16:07;;;;;;;;;;;;;;;-0.16;100.00;99877.34;1668530;86;20158;-63
2022/03/02 07:18:34;;;;;;;;;;;;;;;-0.13;100.00;99880.91;1668568;85;21170;-63
2022/03/02 07:21:00;;;;;;;;;;;;;;;-0.15;100.00;99874.94;1668513;86;20126;-62
2022/03/02 07:23:28;;;;;;;;;;;;;;;-0.15;100.00;99874.94;1668463;86;20141;-62
2022/03/02 07:25:57;;;;;;;;;;;;;;;-0.15;100.00;99878.98;1668466;86;20144;-62
2022/03/02 07:28:24;;;;;;;;;;;;;;;-0.11;100.00;99875.28;1668574;86;20121;-64
2022/03/02 07:30:50;;;;;;;;;;;;;;;-0.07;100.00;99873.75;1669789;86;21813;-63
2022/03/02 07:33:16;;;;;;;;;;;;;;;-0.05;100.00;99872.98;1667995;85;20161;-67
2022/03/02 07:35:51;;;;;;;;;;;;;;;-0.04;100.00;99864.64;1626250;86;33423;-64
2022/03/02 07:38:17;;;;;;;;;;;;;;;-0.02;100.00;99866.58;1669743;86;20174;-69
2022/03/02 07:40:45;;;;;;;;;;;;;;;0.04;100.00;99862.07;1669416;86;20101;-68
2022/03/02 07:43:11;;;;;;;;;;;;;;;0.05;100.00;99865.59;1670180;86;21171;-68
2022/03/02 07:45:38;;;;;;;;;;;;;;;0.06;100.00;99865.88;1668453;85;20959;-67
2022/03/02 07:48:07;;;;;;;;;;;;;;;0.06;100.00;99864.00;1670129;85;20086;-68
2022/03/02 07:50:33;;;;;;;;;;;;;;;0.09;100.00;99865.41;1670261;85;20103;-68
2022/03/02 07:53:01;;;;;;;;;;;;;;;0.10;100.00;99865.70;1670150;86;20244;-68
2022/03/02 07:55:28;;;;;;;;;;;;;;;0.13;100.00;99866.04;1670245;85;21164;-69
2022/03/02 07:57:57;;;;;;;;;;;;;;;0.13;100.00;99862.52;1670317;86;20086;-68
2022/03/02 08:00:28;;;;;;;;;;;;;;;0.12;100.00;99863.05;1670246;86;20181;-67
2022/03/02 08:02:56;;;;;;;;;;;;;;;0.13;100.00;99860.64;1670228;85;20086;-64
2022/03/02 08:05:22;;;;;;;;;;;;;;;0.12;100.00;99863.58;1647326;85;20118;-63
2022/03/02 08:07:49;;;;;;;;;;;;;;;0.11;100.00;99855.19;1668550;85;21179;-64
2022/03/02 08:10:16;;;;;;;;;;;;;;;0.13;100.00;99855.77;1668075;86;21683;-66
2022/03/02 08:12:46;;;;;;;;;;;;;;;0.16;100.00;99850.71;1667978;86;20445;-68
2022/03/02 08:15:11;;;;;;;;;;;;;;;0.20;100.00;99847.00;1667794;85;20086;-71
2022/03/02 08:17:38;;;;;;;;;;;;;;;0.23;100.00;99854.62;1668198;86;20405;-68
2022/03/02 08:20:06;;;;;;;;;;;;;;;0.25;100.00;99848.45;1661186;84;21122;-66
2022/03/02 08:22:32;;;;;;;;;;;;;;;0.26;100.00;99841.98;1658923;86;20185;-65
2022/03/02 08:25:10;;;;;;;;;;;;;;;0.26;100.00;99841.98;1652254;86;20099;-66
2022/03/02 08:27:39;;;;;;;;;;;;;;;0.26;100.00;99842.81;1645557;86;21912;-67
2022/03/02 08:30:10;;;;;;;;;;;;;;;0.26;100.00;99837.41;1640674;86;20123;-66
2022/03/02 08:32:41;;;;;;;;;;;;;;;0.30;100.00;99836.39;1640599;87;21091;-63
2022/03/02 08:35:08;;;;;;;;;;;;;;;0.38;100.00;99835.19;1641042;87;20156;-63
2022/03/02 08:37:35;;;;;;;;;;;;;;;0.45;100.00;99835.33;1655455;86;20090;-61
2022/03/02 08:40:02;;;;;;;;;;;;;;;0.53;100.00;99830.88;1664110;86;20623;-61
2022/03/02 08:42:32;;;;;;;;;;;;;;;0.60;100.00;99830.70;1667838;86;20121;-61
2022/03/02 08:44:59;;;;;;;;;;;;;;;0.67;100.00;99828.66;1667934;86;22090;-61
2022/03/02 08:47:26;;;;;;;;;;;;;;;0.74;100.00;99825.28;1667986;86;20093;-62
2022/03/02 08:49:54;;;;;;;;;;;;;;;0.77;100.00;99828.02;1668040;86;20126;-63
2022/03/02 08:52:31;;;;;;;;;;;;;;;0.80;100.00;99820.24;1668215;86;20174;-62
2022/03/02 08:55:00;;;;;;;;;;;;;;;0.84;100.00;99815.98;1667340;86;20097;-63
2022/03/02 08:57:26;;;;;;;;;;;;;;;0.88;100.00;99819.02;1666970;84;21158;-61
2022/03/02 08:59:53;;;;;;;;;;;;;;;0.89;100.00;99812.02;1667486;86;20146;-61
2022/03/02 09:02:24;;;;;;;;;;;;;;;0.92;100.00;99814.77;1667400;86;20105;-61
2022/03/02 09:04:51;;;;;;;;;;;;;;;0.93;100.00;99810.46;1667457;86;20141;-62
2022/03/02 09:07:18;;;;;;;;;;;;;;;0.97;100.00;99811.61;1667560;85;20268;-62
2022/03/02 09:09:45;;;;;;;;;;;;;;;1.03;100.00;99806.28;1669216;86;21154;-61
2022/03/02 09:12:14;;;;;;;;;;;;;;;1.06;100.00;99799.84;1669703;86;20464;-62
2022/03/02 09:14:41;;;;;;;;;;;;;;;1.07;100.00;99802.84;1669551;86;20150;-62
2022/03/02 09:17:08;;;;;;;;;;;;;;;1.12;100.00;99805.62;1669228;86;21895;-62
2022/03/02 09:19:35;;;;;;;;;;;;;;;1.20;100.00;99805.17;1669533;86;20173;-62
2022/03/02 09:22:03;;;;;;;;;;;;;;;1.24;100.00;99802.25;1669490;86;21234;-62
2022/03/02 09:24:30;;;;;;;;;;;;;;;1.25;100.00;99798.48;1668782;85;20185;-62
2022/03/02 09:26:58;;;;;;;;;;;;;;;1.27;100.00;99798.23;1668712;85;20440;-62
2022/03/02 09:29:30;;;;;;;;;;;;;;;1.31;100.00;99792.61;1667978;86;22050;-63
2022/03/02 09:31:58;;;;;;;;;;;;;;;1.36;100.00;99789.98;1666568;86;20491;-63
2022/03/02 09:34:26;;;;;;;;;;;;;;;1.42;100.00;99788.16;1668600;85;21066;-63
2022/03/02 09:36:54;;;;;;;;;;;;;;;1.44;100.00;99783.33;1668725;86;20098;-63
2022/03/02 09:39:22;;;;;;;;;;;;;;;1.49;100.00;99777.98;1668538;85;20106;-63
2022/03/02 09:41:52;;;;;;;;;;;;;;;1.55;100.00;99782.39;1668582;86;20094;-62
2022/03/02 09:44:20;;;;;;;;;;;;;;;1.62;100.00;99770.84;1668572;86;20130;-63
2022/03/02 09:46:49;;;;;;;;;;;;;;;1.65;100.00;99771.16;1668723;85;20808;-63
2022/03/02 09:49:18;;;;;;;;;;;;;;;1.68;100.00;99768.48;1668509;86;21676;-62
2022/03/02 09:51:44;;;;;;;;;;;;;;;1.70;100.00;99765.00;1668806;85;20165;-63
2022/03/02 09:54:10;;;;;;;;;;;;;;;1.69;100.00;99762.54;1645274;86;20217;-63
2022/03/02 09:56:37;;;;;;;;;;;;;;;1.64;100.00;99752.47;1670143;86;20094;-63
2022/03/02 09:59:07;;;;;;;;;;;;;;;1.60;100.00;99762.98;1670229;86;21162;-63
2022/03/02 10:01:35;;;;;;;;;;;;;;;1.54;100.00;99755.87;1670095;86;21702;-63
2022/03/02 10:04:17;;;;;;;;;;;;;;;1.48;100.00;99751.99;1669219;85;20086;-63
2022/03/02 10:06:42;;;;;;;;;;;;;;;1.41;100.00;99747.30;1669197;86;20437;-62
2022/03/02 10:09:13;;;;;;;;;;;;;;;1.36;100.00;99747.23;1669901;85;20420;-63
2022/03/02 10:11:42;;;;;;;;;;;;;;;1.36;100.00;99737.77;1670034;86;21222;-63
2022/03/02 10:14:09;;;;;;;;;;;;;;;1.33;100.00;99731.79;1669939;86;20125;-63
2022/03/02 10:16:44;;;;;;;;;;;;;;;1.31;100.00;99732.58;1669984;85;20452;-63
2022/03/02 10:19:17;;;;;;;;;;;;;;;1.31;100.00;99727.16;1669617;85;20118;-63
2022/03/02 10:21:44;;;;;;;;;;;;;;;1.32;100.00;99733.39;1669839;86;20109;-63
2022/03/02 10:24:13;;;;;;;;;;;;;;;1.34;100.00;99719.09;1670256;85;21996;-63
2022/03/02 10:26:50;;;;;;;;;;;;;;;1.37;100.00;99718.58;1642423;87;20107;-63
2022/03/02 10:29:31;;;;;;;;;;;;;;;1.42;100.00;99716.48;1614753;89;20115;-64
2022/03/02 10:32:11;;;;;;;;;;;;;;;1.45;100.00;99714.62;1641030;87;20104;-63
2022/03/02 10:34:38;;;;;;;;;;;;;;;1.49;100.00;99708.98;1614884;89;20138;-63
2022/03/02 10:37:08;;;;;;;;;;;;;;;1.53;100.00;99706.06;1614873;89;21823;-63
2022/03/02 10:39:56;;;;;;;;;;;;;;;1.56;100.00;99698.80;1614862;88;20438;-63
2022/03/02 10:42:28;;;;;;;;;;;;;;;1.58;100.00;99703.42;1614999;89;20127;-63
2022/03/02 10:45:19;;;;;;;;;;;;;;;1.61;100.00;99693.44;1614939;89;20393;-62
2022/03/02 10:48:04;;;;;;;;;;;;;;;1.62;100.00;99685.61;1614944;88;20105;-62
2022/03/02 10:50:32;;;;;;;;;;;;;;;1.65;100.00;99685.09;1615058;89;21155;-63
2022/03/02 10:52:59;;;;;;;;;;;;;;;1.67;100.00;99681.60;1614909;89;20348;-63
2022/03/02 10:55:26;;;;;;;;;;;;;;;1.69;100.00;99676.75;1615036;89;20174;-63
2022/03/02 10:57:54;;;;;;;;;;;;;;;1.72;100.00;99672.19;1641185;87;20092;-63
2022/03/02 11:00:22;;;;;;;;;;;;;;;1.77;100.00;99669.50;1641359;87;20108;-62
2022/03/02 11:02:54;;;;;;;;;;;;;;;1.82;100.00;99669.55;1642441;87;21175;-63
2022/03/02 11:05:18;;;;;;;;;;;;;;;1.86;100.00;99665.27;1642582;87;20096;-62
2022/03/02 11:07:45;;;;;;;;;;;;;;;1.87;100.00;99661.48;1641177;87;20112;-62
2022/03/02 11:10:16;;;;;;;;;;;;;;;1.90;100.00;99654.75;1636316;87;20435;-63
2022/03/02 11:12:44;;;;;;;;;;;;;;;1.90;100.00;99650.69;1655840;86;20105;-63
2022/03/02 11:15:12;;;;;;;;;;;;;;;1.88;100.00;99645.52;1661482;86;21210;-63
2022/03/02 11:18:00;;;;;;;;;;;;;;;1.88;100.00;99642.81;1656857;86;20110;-63
2022/03/02 11:20:29;;;;;;;;;;;;;;;1.87;100.00;99643.89;1662375;85;20209;-63
2022/03/02 11:22:58;;;;;;;;;;;;;;;1.89;100.00;99640.39;1662822;86;22048;-63
2022/03/02 11:25:48;;;;;;;;;;;;;;;1.92;100.00;99638.53;1663095;86;20149;-63
2022/03/02 11:28:19;;;;;;;;;;;;;;;1.98;100.00;99628.02;1636007;87;21192;-63
2022/03/02 11:30:47;;;;;;;;;;;;;;;2.03;100.00;99631.31;1634856;87;20427;-63
2022/03/02 11:33:20;;;;;;;;;;;;;;;2.05;100.00;99630.52;1635841;86;20136;-63
2022/03/02 11:35:43;;;;;;;;;;;;;;;2.07;100.00;99628.91;1643521;86;20141;-63
2022/03/02 11:38:12;;;;;;;;;;;;;;;2.02;100.00;99621.55;1695929;84;20150;-63
2022/03/02 11:40:43;;;;;;;;;;;;;;;1.98;100.00;99624.50;1674287;84;21110;-64
2022/03/02 11:43:22;;;;;;;;;;;;;;;1.94;100.00;99622.84;1684924;84;20503;-64
2022/03/02 11:45:56;;;;;;;;;;;;;;;1.89;100.00;99624.15;1637575;87;20185;-63
2022/03/02 11:48:23;;;;;;;;;;;;;;;1.83;100.00;99618.94;1614819;87;20463;-63
2022/03/02 11:51:06;;;;;;;;;;;;;;;1.76;100.00;99612.38;1618758;87;20139;-63
2022/03/02 11:53:40;;;;;;;;;;;;;;;1.74;100.00;99604.23;1621550;87;21271;-63
2022/03/02 11:56:12;;;;;;;;;;;;;;;1.75;100.00;99601.81;1641574;86;20482;-64
2022/03/02 11:59:01;;;;;;;;;;;;;;;1.80;100.00;99604.56;1641295;87;20442;-64
2022/03/02 12:01:39;;;;;;;;;;;;;;;1.89;100.00;99596.26;1641457;87;20139;-64
2022/03/02 12:04:07;;;;;;;;;;;;;;;2.05;100.00;99599.38;1641376;87;20467;-64
2022/03/02 12:06:45;;;;;;;;;;;;;;;2.27;100.00;99597.92;1641336;87;21818;-63
2022/03/02 12:09:29;;;;;;;;;;;;;;;2.42;100.00;99589.87;1641488;87;20120;-63
2022/03/02 12:12:18;;;;;;;;;;;;;;;2.50;100.00;99595.34;1641881;87;20211;-64
2022/03/02 12:14:56;;;;;;;;;;;;;;;2.52;100.00;99592.64;1643735;87;20091;-64
2022/03/02 12:17:29;;;;;;;;;;;;;;;2.54;100.00;99582.91;1643503;86;20454;-64
2022/03/02 12:19:59;;;;;;;;;;;;;;;2.58;100.00;99578.05;1645447;86;20093;-63
2022/03/02 12:22:31;;;;;;;;;;;;;;;2.70;100.00;99572.42;1658521;86;20492;-63
2022/03/02 12:24:59;;;;;;;;;;;;;;;2.88;100.00;99565.73;1637226;86;20128;-64
2022/03/02 12:27:27;;;;;;;;;;;;;;;3.05;100.00;99562.79;1669513;86;21774;-64
2022/03/02 12:29:56;;;;;;;;;;;;;;;3.09;100.00;99568.77;1670890;84;20247;-65
2022/03/02 12:32:29;;;;;;;;;;;;;;;3.02;97.95;99564.67;1670706;86;21109;-64
2022/03/02 12:34:59;;;;;;;;;;;;;;;2.90;97.85;99555.41;1670706;86;20196;-64
2022/03/02 12:37:27;;;;;;;;;;;;;;;2.83;98.02;99556.22;1671165;86;20102;-64
2022/03/02 12:39:53;;;;;;;;;;;;;;;2.76;97.75;99559.17;1670865;84;20090;-64
2022/03/02 12:42:19;;;;;;;;;;;;;;;2.71;98.08;99558.33;1671129;86;20134;-63
2022/03/02 12:44:49;;;;;;;;;;;;;;;2.68;97.66;99553.44;1670731;86;21080;-63
2022/03/02 12:47:18;;;;;;;;;;;;;;;2.59;96.74;99558.54;1670216;86;20102;-63